Time;durP1;ratioP1;P1;durP2;ratioP2;P2;SDS_P1;SDS_P2;PMS_P1;PMS_P2;Temp;Humidity;BMP_temperature;BMP_pressure;BME280_temperature;BME280_humidity;BME280_pressure;Samples;Min_cycle;Max_cycle;Signal;HPM_P1;HPM_P2
2024/02/10 00:01:46;;;;;;;45.87;24.50;;;8.50;99.90;;;;;;4128029;28;20046;-59
2024/02/10 00:03:49;;;;;;;45.60;23.83;;;8.50;99.90;;;;;;4127771;28;20042;-59
2024/02/10 00:05:50;;;;;;;40.47;23.87;;;8.50;99.90;;;;;;4128063;28;20085;-58
2024/02/10 00:07:52;;;;;;;50.00;24.37;;;8.60;99.90;;;;;;4129087;28;20518;-58
2024/02/10 00:09:55;;;;;;;48.37;26.37;;;8.70;99.90;;;;;;4127700;28;20039;-58
2024/02/10 00:11:58;;;;;;;33.07;19.60;;;8.70;99.90;;;;;;4128737;28;20471;-55
2024/02/10 00:13:59;;;;;;;58.27;27.83;;;8.70;99.90;;;;;;4127514;28;20026;-58
2024/02/10 00:16:01;;;;;;;56.53;29.57;;;8.70;99.90;;;;;;4128827;28;20479;-55
2024/02/10 00:18:05;;;;;;;52.93;30.10;;;8.60;99.90;;;;;;4127528;28;20399;-58
2024/02/10 00:20:13;;;;;;;55.40;31.33;;;8.60;99.90;;;;;;4128652;28;20074;-60
2024/02/10 00:22:16;;;;;;;57.33;31.97;;;8.50;99.90;;;;;;4128855;28;20018;-57
2024/02/10 00:24:18;;;;;;;55.63;31.47;;;8.30;99.90;;;;;;4128738;28;20105;-58
2024/02/10 00:26:21;;;;;;;62.53;33.03;;;8.20;99.90;;;;;;4127734;28;20372;-57
2024/02/10 00:28:22;;;;;;;59.67;31.50;;;8.10;99.90;;;;;;4127977;28;20085;-57
2024/02/10 00:30:24;;;;;;;52.93;28.93;;;8.00;99.90;;;;;;4129697;28;20589;-58
2024/02/10 00:32:25;;;;;;;51.70;31.43;;;8.00;99.90;;;;;;4130806;28;20112;-58
2024/02/10 00:34:29;;;;;;;56.77;28.30;;;7.90;99.90;;;;;;4131363;28;20042;-59
2024/02/10 00:36:30;;;;;;;34.50;20.73;;;8.00;99.90;;;;;;4131224;28;20572;-55
2024/02/10 00:38:32;;;;;;;35.80;20.53;;;8.00;99.90;;;;;;4131462;28;20085;-57
2024/02/10 00:40:33;;;;;;;31.13;19.10;;;8.10;99.90;;;;;;4129971;28;20065;-59
2024/02/10 00:42:34;;;;;;;34.70;20.20;;;8.10;99.90;;;;;;4131354;28;20022;-56
2024/02/10 00:44:35;;;;;;;37.40;20.90;;;8.20;99.90;;;;;;4130377;28;20329;-59
2024/02/10 00:46:38;;;;;;;36.13;20.50;;;8.30;99.90;;;;;;4131271;28;20038;-56
2024/02/10 00:48:39;;;;;;;34.97;20.17;;;8.30;99.90;;;;;;4130003;28;20491;-56
2024/02/10 00:50:41;;;;;;;36.80;19.33;;;8.30;99.90;;;;;;4147554;28;20553;-57
2024/02/10 00:52:49;;;;;;;30.60;16.60;;;8.40;99.90;;;;;;4145937;28;20120;-52
2024/02/10 00:54:51;;;;;;;39.07;21.43;;;8.40;99.90;;;;;;4147656;28;20096;-57
2024/02/10 00:56:53;;;;;;;41.00;22.73;;;8.40;99.90;;;;;;4144862;28;20034;-58
2024/02/10 00:58:54;;;;;;;46.13;24.97;;;8.40;99.90;;;;;;4145698;28;20045;-58
2024/02/10 01:00:56;;;;;;;46.30;26.60;;;8.40;99.90;;;;;;4146501;28;20049;-54
2024/02/10 01:02:58;;;;;;;35.73;20.63;;;8.30;99.90;;;;;;4146762;28;20022;-55
2024/02/10 01:04:59;;;;;;;33.03;20.37;;;8.30;99.90;;;;;;4146421;28;20096;-50
2024/02/10 01:07:01;;;;;;;42.47;22.83;;;8.30;99.90;;;;;;4146150;28;20425;-60
2024/02/10 01:09:04;;;;;;;27.37;15.53;;;8.30;99.90;;;;;;4146879;28;20029;-57
2024/02/10 01:11:10;;;;;;;38.40;21.80;;;8.30;99.90;;;;;;4146301;28;20067;-56
2024/02/10 01:13:11;;;;;;;35.53;19.67;;;8.40;99.90;;;;;;4146780;28;20441;-58
2024/02/10 01:15:12;;;;;;;38.90;23.00;;;8.50;99.90;;;;;;4145598;28;20049;-58
2024/02/10 01:17:14;;;;;;;44.47;25.17;;;8.50;99.90;;;;;;4147143;28;20038;-59
2024/02/10 01:19:20;;;;;;;39.97;23.13;;;8.40;99.90;;;;;;4145826;28;20054;-54
2024/02/10 01:21:21;;;;;;;34.63;19.83;;;8.40;99.90;;;;;;4134618;28;20104;-57
2024/02/10 01:23:24;;;;;;;36.53;21.67;;;8.30;99.90;;;;;;4129792;28;20089;-58
2024/02/10 01:25:25;;;;;;;41.17;23.87;;;8.30;99.90;;;;;;4147058;28;20050;-54
2024/02/10 01:27:27;;;;;;;37.27;20.47;;;8.30;99.90;;;;;;4145876;28;20096;-58
2024/02/10 01:29:28;;;;;;;43.67;23.83;;;8.30;99.90;;;;;;4146804;28;20827;-58
2024/02/10 01:31:30;;;;;;;45.53;25.20;;;8.30;99.90;;;;;;4145673;28;20076;-55
2024/02/10 01:33:31;;;;;;;45.53;25.33;;;8.20;99.90;;;;;;4146657;28;20417;-56
2024/02/10 01:35:32;;;;;;;45.83;25.93;;;8.20;99.90;;;;;;4143972;28;20038;-57
2024/02/10 01:37:34;;;;;;;43.50;24.97;;;8.20;99.90;;;;;;4146123;28;20042;-57
2024/02/10 01:39:35;;;;;;;37.80;23.03;;;8.20;99.90;;;;;;4145743;28;20054;-57
2024/02/10 01:41:36;;;;;;;41.57;22.73;;;8.10;99.90;;;;;;4145454;28;20418;-58
2024/02/10 01:43:38;;;;;;;45.53;24.77;;;8.10;99.90;;;;;;4146395;28;20045;-56
2024/02/10 01:45:42;;;;;;;43.30;24.30;;;8.10;99.90;;;;;;4145585;28;20042;-57
2024/02/10 01:47:44;;;;;;;39.13;23.03;;;8.10;99.90;;;;;;4146475;28;20085;-50
2024/02/10 01:49:45;;;;;;;40.33;21.77;;;8.10;99.90;;;;;;4145105;28;20387;-56
2024/02/10 01:51:46;;;;;;;37.93;21.77;;;8.10;99.90;;;;;;4146632;28;20037;-57
2024/02/10 01:53:50;;;;;;;39.20;22.13;;;8.20;99.90;;;;;;4143715;28;20053;-56
2024/02/10 01:55:52;;;;;;;41.10;22.80;;;8.20;99.90;;;;;;4146691;28;20018;-58
2024/02/10 01:58:02;;;;;;;43.87;24.03;;;8.20;99.90;;;;;;4143487;28;20037;-64
2024/02/10 02:00:05;;;;;;;35.87;20.90;;;8.10;99.90;;;;;;4146079;28;20618;-57
2024/02/10 02:02:07;;;;;;;33.27;21.07;;;8.10;99.90;;;;;;4145259;28;20088;-58
2024/02/10 02:04:10;;;;;;;35.77;22.40;;;8.20;99.90;;;;;;4146292;28;20108;-58
2024/02/10 02:06:12;;;;;;;43.03;21.77;;;8.10;99.90;;;;;;4144444;28;20096;-58
2024/02/10 02:08:14;;;;;;;40.87;22.87;;;8.00;99.90;;;;;;4145843;28;20034;-58
2024/02/10 02:10:15;;;;;;;52.53;26.03;;;7.90;99.90;;;;;;4144937;28;20096;-58
2024/02/10 02:12:16;;;;;;;46.07;26.90;;;7.70;99.90;;;;;;4145191;28;20045;-57
2024/02/10 02:14:17;;;;;;;49.50;27.73;;;7.50;99.90;;;;;;4136693;28;20050;-58
2024/02/10 02:16:20;;;;;;;52.73;29.13;;;7.40;99.90;;;;;;4129154;28;20175;-57
2024/02/10 02:18:22;;;;;;;60.77;30.07;;;7.30;99.90;;;;;;4128389;28;20042;-56
2024/02/10 02:20:29;;;;;;;51.70;28.00;;;7.20;99.90;;;;;;4128843;28;20561;-63
2024/02/10 02:22:31;;;;;;;53.97;29.80;;;7.20;99.90;;;;;;4129875;28;20069;-56
2024/02/10 02:24:32;;;;;;;50.33;28.30;;;7.20;99.90;;;;;;4129324;28;20039;-60
2024/02/10 02:26:33;;;;;;;48.77;28.90;;;7.10;99.90;;;;;;4129845;28;20034;-57
2024/02/10 02:28:35;;;;;;;55.57;30.77;;;7.00;99.90;;;;;;4128398;28;20570;-58
2024/02/10 02:30:36;;;;;;;56.00;30.43;;;7.00;99.90;;;;;;4129710;28;20042;-58
2024/02/10 02:32:37;;;;;;;51.77;28.57;;;6.90;99.90;;;;;;4128739;28;20030;-58
2024/02/10 02:34:41;;;;;;;57.50;28.30;;;6.90;99.90;;;;;;4129788;28;20470;-58
2024/02/10 02:36:42;;;;;;;54.23;29.83;;;6.90;99.90;;;;;;4129697;28;20347;-59
2024/02/10 02:38:43;;;;;;;53.50;30.47;;;6.90;99.90;;;;;;4129748;28;20096;-58
2024/02/10 02:40:45;;;;;;;52.93;29.93;;;6.90;99.90;;;;;;4128574;28;20495;-55
2024/02/10 02:42:46;;;;;;;52.00;29.97;;;6.90;99.90;;;;;;4129374;28;20479;-57
2024/02/10 02:44:47;;;;;;;49.53;27.53;;;6.90;99.90;;;;;;4128631;28;20426;-59
2024/02/10 02:46:48;;;;;;;51.37;27.27;;;6.90;99.90;;;;;;4129076;28;20470;-60
2024/02/10 02:48:50;;;;;;;56.33;28.13;;;6.90;99.90;;;;;;4128983;28;20085;-54
2024/02/10 02:50:51;;;;;;;48.23;25.43;;;6.90;99.90;;;;;;4134270;28;20038;-63
2024/02/10 02:52:53;;;;;;;47.80;26.67;;;7.00;99.90;;;;;;4144951;28;20030;-57
2024/02/10 02:54:55;;;;;;;53.03;27.60;;;7.00;99.90;;;;;;4144373;28;21481;-58
2024/02/10 02:57:00;;;;;;;49.97;28.63;;;7.00;99.90;;;;;;4145442;28;20073;-62
2024/02/10 02:59:01;;;;;;;52.07;28.93;;;7.00;99.90;;;;;;4141823;28;20445;-60
2024/02/10 03:01:04;;;;;;;49.10;27.83;;;7.00;99.90;;;;;;4144999;28;20095;-60
2024/02/10 03:03:06;;;;;;;52.93;27.87;;;6.90;99.90;;;;;;4144325;28;20030;-62
2024/02/10 03:05:10;;;;;;;58.90;31.27;;;6.90;99.90;;;;;;4145194;28;20490;-56
2024/02/10 03:07:18;;;;;;;56.00;31.13;;;6.80;99.90;;;;;;4143885;28;20445;-56
2024/02/10 03:09:19;;;;;;;48.37;28.97;;;6.80;99.90;;;;;;4145715;28;20557;-60
2024/02/10 03:11:20;;;;;;;49.80;28.37;;;6.70;99.90;;;;;;4144373;28;20084;-62
2024/02/10 03:13:23;;;;;;;51.93;28.57;;;6.70;99.90;;;;;;4145565;28;20084;-60
2024/02/10 03:15:25;;;;;;;46.87;27.97;;;6.60;99.90;;;;;;4144138;28;20045;-60
2024/02/10 03:17:30;;;;;;;50.77;29.00;;;6.60;99.90;;;;;;4145258;28;20030;-61
2024/02/10 03:19:31;;;;;;;49.50;28.47;;;6.60;99.90;;;;;;4144394;28;20033;-61
2024/02/10 03:21:35;;;;;;;54.33;27.97;;;6.60;99.90;;;;;;4144616;28;20038;-60
2024/02/10 03:23:36;;;;;;;42.63;24.23;;;6.50;99.90;;;;;;4144653;28;20010;-62
2024/02/10 03:25:37;;;;;;;47.30;28.03;;;6.60;99.90;;;;;;4145037;28;20038;-63
2024/02/10 03:27:38;;;;;;;52.77;28.17;;;6.60;99.90;;;;;;4144969;28;20482;-64
2024/02/10 03:29:40;;;;;;;44.10;22.87;;;6.60;99.90;;;;;;4133481;28;20027;-65
2024/02/10 03:31:43;;;;;;;45.33;24.53;;;6.70;99.90;;;;;;4134405;28;20038;-64
2024/02/10 03:33:45;;;;;;;47.93;24.30;;;6.90;99.90;;;;;;4144170;28;20092;-59
2024/02/10 03:35:46;;;;;;;45.47;24.37;;;6.90;99.90;;;;;;4143318;28;20084;-63
2024/02/10 03:37:47;;;;;;;35.10;22.43;;;6.90;99.90;;;;;;4137447;28;20107;-60
2024/02/10 03:39:48;;;;;;;50.13;24.83;;;7.00;99.90;;;;;;4144678;28;20096;-55
2024/02/10 03:41:50;;;;;;;41.00;23.33;;;7.00;99.90;;;;;;4143820;28;20038;-61
2024/02/10 03:43:51;;;;;;;46.13;23.93;;;7.10;99.90;;;;;;4145321;28;20119;-61
2024/02/10 03:45:53;;;;;;;36.43;20.67;;;7.00;99.90;;;;;;4143652;28;20029;-62
2024/02/10 03:48:03;;;;;;;40.70;22.33;;;7.10;99.90;;;;;;4145082;28;20084;-59
2024/02/10 03:50:05;;;;;;;43.38;23.42;;;7.20;99.90;;;;;;4142838;28;20051;-57
2024/02/10 03:52:06;;;;;;;45.43;24.27;;;7.20;99.90;;;;;;4138458;28;20480;-66
2024/02/10 03:54:09;;;;;;;43.03;22.30;;;7.20;99.90;;;;;;4128029;28;20482;-63
2024/02/10 03:56:10;;;;;;;39.17;22.43;;;7.20;99.90;;;;;;4128876;28;20474;-65
2024/02/10 03:58:16;;;;;;;46.03;25.07;;;7.20;99.90;;;;;;4128339;28;20030;-59
2024/02/10 04:00:20;;;;;;;38.30;22.10;;;7.20;99.90;;;;;;4129174;28;20031;-65
2024/02/10 04:02:21;;;;;;;41.10;23.67;;;7.20;99.90;;;;;;4142342;28;20030;-61
2024/02/10 04:04:22;;;;;;;44.93;25.60;;;7.20;99.90;;;;;;4144850;28;20037;-63
2024/02/10 04:06:23;;;;;;;44.13;24.43;;;7.20;99.90;;;;;;4131962;28;20038;-63
2024/02/10 04:08:25;;;;;;;45.17;25.30;;;7.20;99.90;;;;;;4131033;28;20058;-65
2024/02/10 04:10:28;;;;;;;41.27;24.53;;;7.10;99.90;;;;;;4132116;28;20057;-65
2024/02/10 04:12:30;;;;;;;45.73;24.67;;;7.10;99.90;;;;;;4134767;28;20096;-62
2024/02/10 04:14:31;;;;;;;40.60;24.63;;;7.10;99.90;;;;;;4147954;28;20058;-56
2024/02/10 04:16:38;;;;;;;41.30;23.50;;;7.10;99.90;;;;;;4146834;28;20030;-62
2024/02/10 04:18:40;;;;;;;42.33;23.73;;;7.00;99.90;;;;;;4147955;28;20084;-58
2024/02/10 04:20:44;;;;;;;45.77;25.03;;;7.00;99.90;;;;;;4146490;28;20033;-58
2024/02/10 04:22:46;;;;;;;49.53;24.97;;;7.00;99.90;;;;;;4147559;28;20038;-60
2024/02/10 04:24:47;;;;;;;52.67;27.53;;;7.00;99.90;;;;;;4146998;28;20667;-63
2024/02/10 04:26:48;;;;;;;42.23;24.80;;;7.00;99.90;;;;;;4148009;28;20098;-64
2024/02/10 04:28:49;;;;;;;49.30;24.97;;;6.90;99.90;;;;;;4146203;28;20034;-64
2024/02/10 04:30:52;;;;;;;48.30;24.50;;;6.90;99.90;;;;;;4147051;28;20100;-59
2024/02/10 04:32:53;;;;;;;49.67;26.87;;;7.00;99.90;;;;;;4146453;28;20080;-60
2024/02/10 04:34:55;;;;;;;46.93;25.57;;;7.00;99.90;;;;;;4145304;28;20533;-64
2024/02/10 04:36:56;;;;;;;49.50;24.53;;;7.00;99.90;;;;;;4147243;28;20022;-61
2024/02/10 04:38:58;;;;;;;42.73;23.87;;;7.10;99.90;;;;;;4146605;28;20123;-64
2024/02/10 04:41:04;;;;;;;47.17;24.93;;;7.10;99.90;;;;;;4140227;28;20050;-59
2024/02/10 04:43:06;;;;;;;45.97;24.33;;;7.10;99.90;;;;;;4130135;28;20043;-58
2024/02/10 04:45:07;;;;;;;60.80;26.40;;;7.10;99.90;;;;;;4131291;28;20030;-55
2024/02/10 04:47:09;;;;;;;47.07;25.27;;;7.10;99.90;;;;;;4130303;28;20457;-61
2024/02/10 04:49:12;;;;;;;41.70;22.40;;;7.20;99.90;;;;;;4134628;28;20093;-60
2024/02/10 04:51:14;;;;;;;40.63;23.60;;;7.20;99.90;;;;;;4130170;28;20042;-58
2024/02/10 04:53:16;;;;;;;50.97;25.70;;;7.30;99.90;;;;;;4143352;28;20034;-60
2024/02/10 04:55:18;;;;;;;38.63;21.97;;;7.20;99.90;;;;;;4140276;28;20026;-61
2024/02/10 04:57:28;;;;;;;40.57;21.40;;;7.20;99.90;;;;;;4147404;28;20104;-64
2024/02/10 04:59:29;;;;;;;45.10;24.10;;;7.20;99.90;;;;;;4136218;28;20066;-62
2024/02/10 05:01:31;;;;;;;43.83;23.73;;;7.20;99.90;;;;;;4136903;28;20030;-63
2024/02/10 05:03:34;;;;;;;50.37;24.43;;;7.20;99.90;;;;;;4130039;28;20038;-62
2024/02/10 05:05:35;;;;;;;44.90;23.90;;;7.20;99.90;;;;;;4130816;28;20446;-66
2024/02/10 05:07:47;;;;;;;44.27;23.60;;;7.20;99.90;;;;;;4130113;28;20022;-61
2024/02/10 05:09:49;;;;;;;51.50;24.80;;;7.20;99.90;;;;;;4131899;28;20096;-62
2024/02/10 05:11:50;;;;;;;42.63;25.33;;;7.20;99.90;;;;;;4130131;28;20371;-62
2024/02/10 05:13:51;;;;;;;44.07;25.00;;;7.20;99.90;;;;;;4129988;28;20034;-61
2024/02/10 05:15:53;;;;;;;60.07;31.87;;;7.20;99.90;;;;;;4129735;28;20090;-61
2024/02/10 05:17:55;;;;;;;51.70;27.70;;;7.10;99.90;;;;;;4129890;28;20116;-62
2024/02/10 05:19:56;;;;;;;50.10;26.77;;;7.00;99.90;;;;;;4140397;28;20042;-62
2024/02/10 05:21:57;;;;;;;49.77;27.33;;;7.00;99.90;;;;;;4145696;28;20474;-63
2024/02/10 05:24:05;;;;;;;50.10;28.17;;;7.00;99.90;;;;;;4146906;28;20029;-60
2024/02/10 05:26:06;;;;;;;50.40;30.47;;;6.90;99.90;;;;;;4145283;28;20448;-60
2024/02/10 05:28:07;;;;;;;45.27;27.07;;;6.90;99.90;;;;;;4130750;28;20042;-60
2024/02/10 05:30:14;;;;;;;49.80;29.10;;;6.90;99.90;;;;;;4129248;28;20467;-60
2024/02/10 05:32:16;;;;;;;57.07;31.93;;;6.80;99.90;;;;;;4130705;28;20082;-63
2024/02/10 05:34:18;;;;;;;54.37;33.17;;;6.80;99.90;;;;;;4137850;28;20080;-59
2024/02/10 05:36:20;;;;;;;56.90;32.33;;;6.70;99.90;;;;;;4144917;28;20038;-60
2024/02/10 05:38:21;;;;;;;66.43;37.97;;;6.70;99.90;;;;;;4143501;28;20046;-60
2024/02/10 05:40:27;;;;;;;59.67;33.33;;;6.70;99.90;;;;;;4146645;28;20041;-61
2024/02/10 05:42:28;;;;;;;55.07;32.00;;;6.60;99.90;;;;;;4145517;28;20580;-63
2024/02/10 05:44:29;;;;;;;63.03;34.13;;;6.60;99.90;;;;;;4146204;28;20482;-64
2024/02/10 05:46:31;;;;;;;59.93;32.60;;;6.50;99.90;;;;;;4145684;28;20033;-61
2024/02/10 05:48:33;;;;;;;57.33;31.87;;;6.40;99.90;;;;;;4143876;28;20114;-59
2024/02/10 05:50:36;;;;;;;57.30;33.40;;;6.40;99.90;;;;;;4144150;28;20134;-55
2024/02/10 05:52:42;;;;;;;54.83;33.13;;;6.40;99.90;;;;;;4144133;28;20038;-55
2024/02/10 05:54:43;;;;;;;56.10;31.23;;;6.30;99.90;;;;;;4145277;28;20050;-60
2024/02/10 05:56:44;;;;;;;58.37;33.27;;;6.40;99.90;;;;;;4131694;28;20046;-58
2024/02/10 05:58:46;;;;;;;55.80;34.03;;;6.40;99.90;;;;;;4146363;28;20034;-60
2024/02/10 06:00:47;;;;;;;62.23;34.90;;;6.40;99.90;;;;;;4144672;28;20426;-59
2024/02/10 06:02:49;;;;;;;64.27;36.17;;;6.40;99.90;;;;;;4146302;28;20088;-65
2024/02/10 06:04:50;;;;;;;65.70;37.03;;;6.40;99.90;;;;;;4145220;28;20486;-61
2024/02/10 06:06:52;;;;;;;71.10;38.43;;;6.40;99.90;;;;;;4145791;28;20037;-62
2024/02/10 06:08:53;;;;;;;79.27;40.20;;;6.30;99.90;;;;;;4143485;28;20046;-62
2024/02/10 06:10:54;;;;;;;70.90;41.63;;;6.20;99.90;;;;;;4144653;28;20469;-63
2024/02/10 06:12:56;;;;;;;65.67;38.87;;;6.20;99.90;;;;;;4143372;28;20034;-66
2024/02/10 06:14:57;;;;;;;66.20;39.37;;;6.10;99.90;;;;;;4138344;28;20058;-57
2024/02/10 06:16:59;;;;;;;62.27;37.20;;;6.10;99.90;;;;;;4137042;28;20045;-58
2024/02/10 06:19:01;;;;;;;63.80;35.97;;;6.10;99.90;;;;;;4142472;28;20092;-58
2024/02/10 06:21:02;;;;;;;63.57;34.87;;;6.10;99.90;;;;;;4134132;28;20073;-57
2024/02/10 06:23:03;;;;;;;59.30;34.03;;;6.20;99.90;;;;;;4138577;28;20450;-57
2024/02/10 06:25:06;;;;;;;64.50;36.33;;;6.20;99.90;;;;;;4135303;28;20033;-58
2024/02/10 06:27:07;;;;;;;68.77;39.37;;;6.20;99.90;;;;;;4140156;28;20133;-58
2024/02/10 06:29:08;;;;;;;68.03;38.27;;;6.30;99.90;;;;;;4138645;28;20077;-60
2024/02/10 06:31:14;;;;;;;72.20;38.97;;;6.20;99.90;;;;;;4141823;28;20578;-59
2024/02/10 06:33:22;;;;;;;64.33;37.67;;;6.20;99.90;;;;;;4133559;28;20426;-57
2024/02/10 06:35:24;;;;;;;58.93;33.27;;;6.20;99.90;;;;;;4132501;28;20124;-57
2024/02/10 06:37:25;;;;;;;50.27;28.20;;;6.20;99.90;;;;;;4144952;28;20026;-58
2024/02/10 06:39:26;;;;;;;39.83;23.37;;;6.30;99.90;;;;;;4143926;28;20590;-57
2024/02/10 06:41:28;;;;;;;50.17;30.07;;;6.40;99.90;;;;;;4134126;28;20034;-54
2024/02/10 06:43:31;;;;;;;59.97;34.57;;;6.50;99.90;;;;;;4131920;28;20029;-61
2024/02/10 06:45:36;;;;;;;60.30;35.80;;;6.50;99.90;;;;;;4140529;28;20034;-58
2024/02/10 06:47:38;;;;;;;65.93;36.17;;;6.50;99.90;;;;;;4132376;28;20375;-62
2024/02/10 06:49:39;;;;;;;62.27;33.87;;;6.40;99.90;;;;;;4126915;28;20089;-60
2024/02/10 06:51:41;;;;;;;89.37;40.67;;;6.30;99.90;;;;;;4142283;28;20049;-61
2024/02/10 06:53:43;;;;;;;70.20;36.53;;;6.40;99.90;;;;;;4143067;28;20058;-61
2024/02/10 06:55:45;;;;;;;65.33;34.37;;;6.50;99.90;;;;;;4144554;28;20076;-60
2024/02/10 06:57:48;;;;;;;64.57;35.87;;;6.50;99.90;;;;;;4144335;28;20038;-61
2024/02/10 06:59:49;;;;;;;60.17;31.77;;;6.60;99.90;;;;;;4133573;28;20052;-56
2024/02/10 07:01:54;;;;;;;64.40;35.47;;;6.60;99.90;;;;;;4144310;28;20120;-61
2024/02/10 07:03:56;;;;;;;58.17;31.33;;;6.60;99.90;;;;;;4135547;28;20038;-55
2024/02/10 07:05:58;;;;;;;52.40;30.23;;;6.70;99.90;;;;;;4143227;28;20042;-57
2024/02/10 07:07:59;;;;;;;48.80;26.17;;;6.80;99.90;;;;;;4144435;28;20029;-58
2024/02/10 07:10:01;;;;;;;48.27;27.57;;;6.80;99.90;;;;;;4143213;28;20045;-61
2024/02/10 07:12:02;;;;;;;58.77;32.10;;;6.90;99.90;;;;;;4145108;28;20045;-62
2024/02/10 07:14:04;;;;;;;54.13;32.67;;;7.00;99.90;;;;;;4143243;28;20049;-61
2024/02/10 07:16:05;;;;;;;56.47;32.30;;;7.10;99.90;;;;;;4145151;28;20038;-63
2024/02/10 07:18:07;;;;;;;58.53;33.07;;;7.00;99.90;;;;;;4143952;28;20042;-59
2024/02/10 07:20:15;;;;;;;58.00;33.30;;;7.00;99.90;;;;;;4144910;28;20033;-67
2024/02/10 07:22:17;;;;;;;57.73;31.47;;;7.10;99.90;;;;;;4144119;28;20084;-60
2024/02/10 07:24:18;;;;;;;45.07;26.27;;;7.10;99.90;;;;;;4151936;28;20038;-61
2024/02/10 07:26:20;;;;;;;44.47;25.00;;;7.20;99.90;;;;;;4137327;28;20088;-61
2024/02/10 07:28:22;;;;;;;49.90;29.23;;;7.20;99.90;;;;;;4133868;28;20088;-60
2024/02/10 07:30:23;;;;;;;54.70;30.10;;;7.30;99.90;;;;;;4143475;28;20076;-60
2024/02/10 07:32:24;;;;;;;57.90;32.60;;;7.30;99.90;;;;;;4144649;28;20038;-61
2024/02/10 07:34:26;;;;;;;58.40;31.53;;;7.40;99.90;;;;;;4132224;28;20038;-60
2024/02/10 07:36:35;;;;;;;61.83;34.67;;;7.40;99.90;;;;;;4127969;28;20057;-58
2024/02/10 07:38:38;;;;;;;64.03;37.40;;;7.40;99.90;;;;;;4128917;28;20047;-61
2024/02/10 07:40:39;;;;;;;68.30;41.87;;;7.40;99.90;;;;;;4131170;28;20123;-60
2024/02/10 07:42:41;;;;;;;61.03;34.47;;;7.40;99.90;;;;;;4131941;28;20101;-62
2024/02/10 07:44:42;;;;;;;58.73;32.57;;;7.50;99.90;;;;;;4130790;28;20030;-63
2024/02/10 07:46:43;;;;;;;57.40;33.33;;;7.60;99.90;;;;;;4132155;28;20038;-65
2024/02/10 07:48:45;;;;;;;59.43;34.43;;;7.70;99.90;;;;;;4130147;28;20077;-60
2024/02/10 07:50:47;;;;;;;62.27;36.33;;;7.80;99.90;;;;;;4140209;28;20092;-63
2024/02/10 07:52:48;;;;;;;57.10;34.57;;;7.80;99.90;;;;;;4146620;28;20042;-61
2024/02/10 07:54:50;;;;;;;60.40;36.10;;;7.80;99.90;;;;;;4148348;28;20173;-60
2024/02/10 07:56:51;;;;;;;59.17;34.17;;;8.00;99.90;;;;;;4146672;28;20025;-61
2024/02/10 07:58:58;;;;;;;53.73;30.77;;;8.00;99.90;;;;;;4147874;28;20545;-61
2024/02/10 08:01:01;;;;;;;55.73;32.70;;;8.20;99.90;;;;;;4146888;28;20429;-61
2024/02/10 08:03:03;;;;;;;45.67;27.67;;;8.50;99.90;;;;;;4146927;28;20022;-61
2024/02/10 08:05:05;;;;;;;41.87;22.43;;;8.70;99.90;;;;;;4146674;28;20033;-60
2024/02/10 08:07:07;;;;;;;40.27;24.77;;;8.70;99.90;;;;;;4147264;28;20080;-60
2024/02/10 08:09:08;;;;;;;39.37;24.20;;;8.80;99.90;;;;;;4146864;28;20064;-60
2024/02/10 08:11:09;;;;;;;49.30;27.30;;;8.80;99.90;;;;;;4147445;28;20034;-61
2024/02/10 08:13:10;;;;;;;47.47;25.60;;;8.90;99.90;;;;;;4147921;28;20052;-60
2024/02/10 08:15:12;;;;;;;50.27;26.70;;;9.10;99.90;;;;;;4145485;28;20034;-64
2024/02/10 08:17:13;;;;;;;42.87;25.50;;;9.20;99.90;;;;;;4147033;28;20080;-63
2024/02/10 08:19:17;;;;;;;42.33;24.63;;;9.20;99.90;;;;;;4146509;28;20057;-61
2024/02/10 08:21:21;;;;;;;45.17;26.70;;;9.30;99.90;;;;;;4147198;28;20037;-63
2024/02/10 08:23:23;;;;;;;43.43;25.17;;;9.40;99.90;;;;;;4146047;28;20068;-62
2024/02/10 08:25:27;;;;;;;45.93;27.80;;;9.50;99.90;;;;;;4147908;28;20034;-63
2024/02/10 08:27:29;;;;;;;56.50;32.23;;;9.60;99.90;;;;;;4146193;28;20437;-61
2024/02/10 08:29:33;;;;;;;48.80;29.07;;;9.70;99.90;;;;;;4147274;28;20076;-62
2024/02/10 08:31:36;;;;;;;62.20;30.07;;;9.70;99.90;;;;;;4145414;28;20544;-62
2024/02/10 08:33:37;;;;;;;36.17;21.80;;;9.70;99.90;;;;;;4146607;28;20046;-59
2024/02/10 08:35:41;;;;;;;46.00;24.57;;;9.80;99.90;;;;;;4145535;28;20076;-60
2024/02/10 08:37:42;;;;;;;40.87;24.13;;;9.80;99.90;;;;;;4146977;28;20021;-63
2024/02/10 08:39:45;;;;;;;39.23;25.60;;;9.90;99.90;;;;;;4145438;28;20548;-65
2024/02/10 08:41:46;;;;;;;39.63;25.73;;;9.90;99.90;;;;;;4146629;28;20514;-60
2024/02/10 08:43:47;;;;;;;45.50;26.07;;;10.00;99.90;;;;;;4145640;28;20093;-63
2024/02/10 08:45:49;;;;;;;41.30;24.70;;;10.00;99.90;;;;;;4146884;28;20038;-65
2024/02/10 08:47:50;;;;;;;39.07;24.67;;;10.10;99.90;;;;;;4145910;28;20022;-62
2024/02/10 08:49:52;;;;;;;35.53;21.80;;;10.10;99.90;;;;;;4145450;28;20030;-62
2024/02/10 08:51:54;;;;;;;37.77;23.13;;;10.10;99.90;;;;;;4145954;28;20093;-60
2024/02/10 08:53:56;;;;;;;34.93;22.70;;;10.10;99.90;;;;;;4145754;28;20060;-58
2024/02/10 08:55:57;;;;;;;45.90;25.40;;;10.10;99.90;;;;;;4147284;28;20033;-60
2024/02/10 08:58:01;;;;;;;48.30;25.60;;;10.10;99.90;;;;;;4145699;28;20029;-63
2024/02/10 09:00:05;;;;;;;41.53;24.97;;;10.10;99.90;;;;;;4147014;28;20054;-63
2024/02/10 09:02:08;;;;;;;46.80;25.23;;;10.10;99.90;;;;;;4145260;28;20524;-61
2024/02/10 09:04:09;;;;;;;32.00;19.77;;;10.10;99.90;;;;;;4146844;28;20041;-60
2024/02/10 09:06:11;;;;;;;32.47;19.03;;;10.10;99.90;;;;;;4145689;28;20544;-62
2024/02/10 09:08:12;;;;;;;33.67;19.00;;;10.10;99.90;;;;;;4147056;28;20068;-60
2024/02/10 09:10:13;;;;;;;33.03;19.43;;;10.10;99.90;;;;;;4145632;28;20037;-56
2024/02/10 09:12:16;;;;;;;37.97;20.73;;;10.20;99.90;;;;;;4146576;28;20049;-61
2024/02/10 09:14:17;;;;;;;30.37;19.53;;;10.20;99.90;;;;;;4145032;28;20038;-59
2024/02/10 09:16:18;;;;;;;41.67;20.47;;;10.20;99.90;;;;;;4145958;28;20092;-60
2024/02/10 09:18:20;;;;;;;31.50;19.57;;;10.30;99.90;;;;;;4146380;28;20038;-63
2024/02/10 09:20:23;;;;;;;34.70;20.07;;;10.30;99.90;;;;;;4145089;28;20096;-63
2024/02/10 09:22:24;;;;;;;40.63;22.33;;;10.40;99.90;;;;;;4146188;28;20449;-59
2024/02/10 09:24:26;;;;;;;37.70;20.93;;;10.50;99.90;;;;;;4145345;28;20030;-61
2024/02/10 09:26:27;;;;;;;40.70;21.77;;;10.50;99.90;;;;;;4146666;28;20379;-61
2024/02/10 09:28:29;;;;;;;35.43;21.43;;;10.50;99.90;;;;;;4144629;28;20083;-60
2024/02/10 09:30:30;;;;;;;34.17;22.23;;;10.60;99.90;;;;;;4146328;28;20038;-59
2024/02/10 09:32:31;;;;;;;35.60;19.53;;;10.60;99.90;;;;;;4144471;28;20402;-59
2024/02/10 09:34:33;;;;;;;33.30;18.43;;;10.70;99.90;;;;;;4146047;28;20053;-66
2024/02/10 09:36:34;;;;;;;28.00;17.83;;;10.80;99.90;;;;;;4145151;28;20076;-59
2024/02/10 09:38:37;;;;;;;29.53;17.67;;;10.90;99.90;;;;;;4146193;28;20038;-61
2024/02/10 09:40:39;;;;;;;33.87;17.43;;;10.90;99.90;;;;;;4144676;28;20053;-60
2024/02/10 09:42:46;;;;;;;25.37;14.37;;;11.10;99.90;;;;;;4146438;28;20042;-61
2024/02/10 09:44:51;;;;;;;20.63;13.30;;;11.10;99.90;;;;;;4145054;28;20038;-58
2024/02/10 09:46:57;;;;;;;23.50;12.97;;;11.30;99.90;;;;;;4144507;28;20449;-60
2024/02/10 09:48:58;;;;;;;31.17;14.10;;;11.40;99.90;;;;;;4144051;28;20084;-60
2024/02/10 09:51:01;;;;;;;16.57;11.47;;;11.50;99.90;;;;;;4145551;28;20088;-60
2024/02/10 09:53:03;;;;;;;23.07;12.60;;;11.60;99.90;;;;;;4145188;28;20065;-60
2024/02/10 09:55:05;;;;;;;31.97;13.17;;;11.70;99.90;;;;;;4145784;28;20363;-63
2024/02/10 09:57:11;;;;;;;23.30;11.70;;;11.80;99.90;;;;;;4145239;28;20089;-60
2024/02/10 09:59:18;;;;;;;30.00;12.70;;;12.00;99.90;;;;;;4145205;28;20022;-62
2024/02/10 10:01:20;;;;;;;25.10;12.90;;;12.20;99.90;;;;;;4145444;28;20104;-58
2024/02/10 10:03:21;;;;;;;24.43;12.50;;;12.30;99.90;;;;;;4144795;28;20100;-62
2024/02/10 10:05:22;;;;;;;24.43;11.90;;;12.40;99.90;;;;;;4141776;28;20437;-60
2024/02/10 10:07:24;;;;;;;26.30;12.27;;;12.40;99.90;;;;;;4141473;28;20559;-59
2024/02/10 10:09:29;;;;;;;22.93;12.40;;;12.50;99.90;;;;;;4130187;28;20434;-61
2024/02/10 10:11:33;;;;;;;30.00;11.90;;;12.60;99.90;;;;;;4127634;28;20069;-58
2024/02/10 10:13:35;;;;;;;29.50;11.33;;;12.70;99.90;;;;;;4136664;28;20030;-62
2024/02/10 10:15:38;;;;;;;14.63;8.17;;;12.80;99.90;;;;;;4137818;28;20058;-59
2024/02/10 10:17:40;;;;;;;14.33;7.07;;;13.00;99.90;;;;;;4129986;28;20106;-59
2024/02/10 10:19:45;;;;;;;12.27;5.97;;;13.20;99.90;;;;;;4129743;28;20068;-63
2024/02/10 10:21:49;;;;;;;17.93;8.13;;;13.30;99.90;;;;;;4129578;28;20050;-59
2024/02/10 10:23:51;;;;;;;13.53;7.20;;;13.50;99.90;;;;;;4128615;28;20093;-65
2024/02/10 10:25:52;;;;;;;12.97;6.30;;;13.60;99.90;;;;;;4130048;28;20047;-55
2024/02/10 10:27:56;;;;;;;13.80;6.23;;;13.70;99.90;;;;;;4135819;28;20042;-58